AEST,Max TemperatureF,Mean TemperatureF,Min TemperatureF,Max Dew PointF,MeanDew PointF,Min DewpointF,Max Humidity, Mean Humidity, Min Humidity, Max Sea Level PressureIn, Mean Sea Level PressureIn, Min Sea Level PressureIn, Max VisibilityMiles, Mean VisibilityMiles, Min VisibilityMiles, Max Wind SpeedMPH, Mean Wind SpeedMPH, Max Gust SpeedMPH,PrecipitationIn, CloudCover, Events, WindDirDegrees
2012-9-1,83,74,65,66,62,59,88,67,37,30.05,29.99,29.95,19,8,6,17,10,,0.00,2,,148
2012-9-2,82,76,69,65,62,59,83,64,38,30.08,30.02,29.98,19,7,6,23,12,,0.00,3,Rain,154
2012-9-3,81,72,64,61,56,49,78,55,23,30.09,30.03,29.95,19,8,6,20,11,,0.00,2,,149
2012-9-4,82,74,65,61,59,55,83,61,31,30.10,30.04,30.01,19,8,6,22,12,,0.00,1,,153
2012-9-5,75,70,66,66,62,59,88,72,50,30.10,30.04,29.98,19,7,3,17,11,29,0.00,4,Rain,170
2012-9-6,82,73,64,63,60,55,94,65,31,30.05,30.00,29.92,19,8,6,17,10,,0.00,3,Rain,150
2012-9-7,84,72,60,66,61,57,94,67,37,30.05,29.98,29.92,19,8,6,14,8,,0.00,5,,157
2012-9-8,86,74,63,66,64,61,100,72,37,30.04,29.98,29.92,19,8,6,16,6,,0.00,1,Fog,138
2012-9-9,81,74,68,68,63,59,88,68,44,30.09,30.01,29.95,19,7,4,22,12,,0.01,3,Rain,158
2012-9-10,81,72,62,63,59,54,88,62,32,30.09,30.04,29.98,19,8,6,24,13,,0.00,4,,153
2012-9-11,79,74,69,66,64,61,88,71,48,30.10,30.04,29.98,16,7,5,20,13,,0.00,6,Rain,165
2012-9-12,84,76,67,66,63,57,88,69,34,30.09,30.03,29.98,19,7,3,22,12,,0.00,4,Rain,162
2012-9-13,84,76,68,67,63,61,88,67,39,30.04,29.96,29.89,19,8,6,20,11,,0.02,5,Rain,158
2012-9-14,82,74,66,67,64,61,100,71,42,29.99,29.94,29.88,19,8,6,14,6,,0.00,3,,131
2012-9-15,84,73,62,64,60,55,94,63,28,30.06,29.99,29.95,19,8,6,15,8,,0.00,1,,145
2012-9-16,82,74,66,65,62,59,83,65,40,30.06,30.00,29.94,19,8,6,16,9,,0.00,4,Rain,143
2012-9-17,81,74,68,70,65,61,94,70,51,30.03,29.95,29.86,16,7,6,10,7,,0.01,5,Rain,49
2012-9-18,80,74,67,69,67,64,94,76,54,30.02,29.96,29.89,19,8,6,10,4,,0.00,3,,55
2012-9-19,84,74,64,68,65,63,100,74,46,30.04,29.98,29.92,19,8,6,16,4,,0.00,1,,105
2012-9-20,87,76,65,65,60,43,94,63,14,30.07,30.00,29.89,19,8,6,15,6,,0.00,1,,139
2012-9-21,85,74,62,63,60,52,88,62,27,30.08,30.01,29.92,19,7,6,14,8,,0.00,1,,116
2012-9-22,82,72,61,66,62,54,94,67,43,30.02,29.96,29.89,19,8,6,14,5,,0.00,1,,101
2012-9-23,82,73,64,68,66,64,100,75,48,29.97,29.90,29.83,19,8,6,12,4,,0.00,1,,73
2012-9-24,84,74,64,68,66,63,100,76,46,29.97,29.91,29.86,19,8,6,13,3,,0.00,1,,9
2012-9-25,84,73,62,66,64,59,100,73,43,29.98,29.92,29.86,19,8,6,15,4,,0.00,1,,78
2012-9-26,84,74,63,67,65,61,100,70,42,30.01,29.94,29.86,19,7,6,16,5,,0.00,1,,118
2012-9-27,86,79,72,68,65,63,78,66,45,30.05,29.99,29.95,19,7,6,20,8,,0.00,3,Rain,142
2012-9-28,81,75,69,70,66,63,94,73,44,30.06,29.99,29.92,12,6,2,16,8,,0.01,5,Rain,157
2012-9-29,82,74,66,66,63,57,94,65,35,30.04,29.98,29.92,19,7,6,12,5,,0.00,4,,109
2012-9-30,80,76,71,70,65,62,94,69,45,30.07,30.01,29.95,19,7,4,13,5,,0.01,6,Rain,140